createdAt,value
2017-06-21T11:10:09.665Z,36.28
2017-06-21T11:20:14.577Z,36.9
2017-06-21T11:40:02.936Z,32.65
2017-06-21T11:50:02.320Z,33.44
2017-06-21T12:00:02.784Z,32.97
2017-06-21T12:10:02.676Z,35.04
2017-06-21T12:20:02.725Z,35.62
2017-06-21T12:30:02.190Z,35.63
2017-06-21T12:40:02.910Z,36.75
2017-06-21T12:50:02.750Z,35.28
2017-06-21T13:00:02.200Z,34.3
2017-06-21T13:10:02.847Z,35.45
2017-06-21T13:20:02.797Z,36.07
2017-06-21T13:30:02.279Z,35.85
2017-06-21T13:40:02.754Z,36.35
2017-06-21T13:50:02.243Z,36.02
2017-06-21T14:00:02.692Z,35.64
2017-06-21T14:10:02.405Z,33.93
2017-06-21T15:40:02.544Z,31.45
2017-06-21T15:50:02.422Z,29.8
2017-06-21T16:00:02.882Z,31.04
2017-06-21T16:10:02.955Z,28.9
2017-06-21T16:20:02.627Z,30.88
2017-06-21T16:30:02.104Z,29.78
2017-06-21T16:40:02.532Z,29.41
2017-06-21T16:50:02.098Z,31.05
2017-06-21T17:00:02.594Z,33.06
2017-06-21T17:10:02.460Z,30.83
2017-06-21T17:20:02.570Z,29.8
2017-06-21T17:30:03.035Z,30.78
2017-06-21T17:40:02.299Z,33.36
2017-06-21T17:50:02.994Z,33.74
2017-06-21T18:00:02.445Z,38.05
2017-06-21T18:10:02.880Z,39.72
2017-06-21T18:20:02.143Z,40.77
2017-06-21T18:30:02.650Z,41.1
2017-06-21T18:40:02.117Z,41.49
2017-06-21T18:50:02.936Z,45.01
2017-06-21T19:00:02.372Z,46.6
2017-06-21T19:10:02.274Z,46.37
2017-06-21T19:20:02.783Z,48.78
2017-06-21T19:30:02.237Z,48.68
2017-06-21T19:40:02.707Z,48.81
2017-06-21T19:50:02.835Z,50.47
2017-06-21T20:00:02.318Z,51.18
2017-06-21T20:10:02.745Z,51.89
2017-06-21T20:20:02.245Z,52.96
2017-06-21T20:30:02.692Z,53.65
2017-06-21T20:40:02.161Z,54.95
2017-06-21T20:50:02.439Z,56.29
2017-06-21T21:00:02.922Z,57.71
2017-06-21T21:10:02.576Z,57.43
2017-06-21T21:20:02.129Z,58.4
2017-06-21T21:30:02.601Z,60.09
2017-06-21T21:40:02.088Z,59.89
2017-06-21T21:50:02.097Z,60.45
2017-06-21T22:00:02.714Z,61.74
2017-06-21T22:10:02.239Z,62.53
2017-06-21T22:20:02.627Z,62.4
2017-06-21T22:30:02.087Z,62.83
2017-06-21T22:40:02.316Z,63.11
2017-06-21T22:50:02.999Z,64.17
2017-06-21T23:00:02.486Z,64.9
2017-06-21T23:10:02.209Z,66.09
2017-06-21T23:20:02.346Z,66.81
2017-06-21T23:30:02.829Z,65.71
2017-06-21T23:40:02.135Z,65.83
2017-06-21T23:50:02.336Z,70.42
